Main page
METAR-TAF:

METAR-TAF

Airports :

Chièvres, Belgium

Chièvres Air Base

latitude: 50-34N, longitude: 003-50E, elevation: 60 m

Current weather observation

The report was made 16 minutes ago, at 08:55 UTC
Wind 10 kt from the Southwest
Temperature 12°C
Humidity 76%
Pressure 1026 hPa
Visibility 10 km or more

METAR: EBCV 290855Z AUTO 22010KT 9999 FEW023/// OVC038/// 12/08 Q1026 BLU

Time: 11:11 (09:11 UTC)

Forecast

The report was made 3 hours and 30 minutes ago, at 05:41 UTC
Forecast valid from 29 at 07 UTC to 29 at 16 UTC
Wind 10 kt from the Southwest
Visibility 10 km or more
Scattered clouds at a height of 2500 ft
Temporary
from 29 at 07 UTC to 29 at 16 UTC
Wind 10 kt from the Southwest with gusts up to 20 kt
Broken clouds at a height of 2000 ft
Broken clouds at a height of 4000 ft

TAF: EBCV 290541Z 2907/2916 23010KT 9999 SCT025 TEMPO 2907/2916 23010G20KT BKN020 BKN040 BY EBWM

Weather observations and forecasts of more than 4000 airports (METAR and TAF reports).

The available stations are represented by yellow and red dots on the map.

Hover mouse over dot to see the name of the station.

Then click to see weather observations and forecasts.

To change the map : click on the green buttons with a black cross to zoom in, on the green button with a dash to zoom out, or on the green arrows for adjacent maps.


METAR-TAF: